Forside
METAR-TAF:

METAR-TAF

Lufthavne :

Jasper County, Indiana, USA

Breddekreds: 40-56-52N, længdekreds: 087-10-57W, højde: 213 m

Aktuelle vejr

Denne rapport blev lavet for 5 minutter siden, kl. 12:15 UTC
Vind 8 kt fra nord
Temperatur 2°C
Fugtighed 87%
Tryk 1018 hPa
Sigt: 16.1 km
Overskyet i en højde af 1300 ft

METAR: KRZL 311215Z AUTO 01008KT 10SM OVC013 02/00 A3005 RMK AO2

Tid: 08:20 (12:20 UTC)


TAF: fraværende

Vejrobservationer og prognoser fra mere end 4000 lufthavne (METAR og TAF).

De gule og røde prikker repræsenterer de meteorologiske stationer.

Flyt musen over at se navnet på stationen.

Så klik over at se vejr observationer og prognoser.

At skifte det kort: Klik på de grønne knapper med et sort kors for at zoome ind; på den grønne knap med en bindestreg for at zoome ud; eller på de grønne pile for tilstødende kort.


METAR-TAF: